createdAt,value
2023-06-10T00:01:20.877Z,18.50
2023-06-10T00:06:25.725Z,18.40
2023-06-10T00:11:29.015Z,18.30
2023-06-10T00:16:32.326Z,18.20
2023-06-10T00:21:38.797Z,18.10
2023-06-10T00:26:43.224Z,18.00
2023-06-10T00:31:47.442Z,17.86
2023-06-10T00:36:50.816Z,17.70
2023-06-10T00:41:54.186Z,17.60
2023-06-10T00:46:57.729Z,17.54
2023-06-10T00:52:01.008Z,17.40
2023-06-10T00:57:05.671Z,17.40
2023-06-10T01:02:10.617Z,17.30
2023-06-10T01:07:30.107Z,17.20
2023-06-10T01:12:50.404Z,17.10
2023-06-10T01:17:59.496Z,17.00
2023-06-10T01:23:04.472Z,16.90
2023-06-10T01:28:28.609Z,16.80
2023-06-10T01:33:37.029Z,16.70
2023-06-10T01:38:44.877Z,16.60
2023-06-10T01:43:49.211Z,16.60
2023-06-10T01:48:52.453Z,16.50
2023-06-10T01:53:55.722Z,16.50
2023-06-10T01:59:00.521Z,16.40
2023-06-10T02:04:04.145Z,16.30
2023-06-10T02:09:07.620Z,16.28
2023-06-10T02:14:11.111Z,16.20
2023-06-10T02:19:15.576Z,16.10
2023-06-10T02:24:19.299Z,16.10
2023-06-10T02:29:22.665Z,16.00
2023-06-10T02:34:26.227Z,15.98
2023-06-10T02:39:29.911Z,15.90
2023-06-10T02:44:33.240Z,15.90
2023-06-10T02:49:37.082Z,15.90
2023-06-10T02:54:40.973Z,15.90
2023-06-10T02:59:44.690Z,15.90
2023-06-10T03:04:48.922Z,15.90
2023-06-10T03:09:52.268Z,15.90
2023-06-10T03:14:55.455Z,15.80
2023-06-10T03:19:58.767Z,15.80
2023-06-10T03:25:02.176Z,15.80
2023-06-10T03:30:06.616Z,15.70
2023-06-10T03:35:10.316Z,15.80
2023-06-10T03:40:14.049Z,15.80
2023-06-10T03:45:17.724Z,15.80
2023-06-10T03:50:21.189Z,15.88
2023-06-10T03:55:24.820Z,15.90
2023-06-10T04:00:28.008Z,16.00
2023-06-10T04:05:31.591Z,16.10
2023-06-10T04:10:34.963Z,16.06
2023-06-10T04:15:38.144Z,16.20
2023-06-10T04:20:41.484Z,16.30
2023-06-10T04:25:44.782Z,16.50
2023-06-10T04:30:48.525Z,16.70
2023-06-10T04:35:52.026Z,16.80
2023-06-10T04:40:55.319Z,17.00
2023-06-10T04:45:58.927Z,17.10
2023-06-10T04:51:02.247Z,17.30
2023-06-10T04:56:06.092Z,17.50
2023-06-10T05:01:09.792Z,17.60
2023-06-10T05:06:12.931Z,17.70
2023-06-10T05:11:16.204Z,17.90
2023-06-10T05:16:19.660Z,18.00
2023-06-10T05:21:23.136Z,18.00
2023-06-10T05:26:26.674Z,18.10
2023-06-10T05:31:30.014Z,18.30
2023-06-10T05:36:33.906Z,18.50
2023-06-10T05:41:37.812Z,18.54
2023-06-10T05:46:41.129Z,18.52
2023-06-10T05:51:44.497Z,18.60
2023-06-10T05:56:47.872Z,18.80
2023-06-10T06:01:51.587Z,18.80
2023-06-10T06:06:54.900Z,18.90
2023-06-10T06:11:58.295Z,19.10
2023-06-10T06:17:01.644Z,19.20
2023-06-10T06:22:05.430Z,19.22
2023-06-10T06:27:08.750Z,19.50
2023-06-10T06:32:11.951Z,19.80
2023-06-10T06:37:15.781Z,19.80
2023-06-10T06:42:19.710Z,19.90
2023-06-10T06:47:23.213Z,19.90
2023-06-10T06:52:28.638Z,20.00
2023-06-10T06:57:36.734Z,20.06
2023-06-10T07:02:40.657Z,20.20
2023-06-10T07:07:44.763Z,20.30
2023-06-10T07:12:48.008Z,20.40
2023-06-10T07:17:51.850Z,20.62
2023-06-10T07:22:55.404Z,20.74
2023-06-10T07:27:59.065Z,20.84
2023-06-10T07:33:04.017Z,21.00
2023-06-10T07:38:07.418Z,21.20
2023-06-10T07:43:10.798Z,21.40
2023-06-10T07:48:14.448Z,21.60
2023-06-10T07:53:17.737Z,21.70
2023-06-10T07:58:21.293Z,21.80
2023-06-10T08:03:24.755Z,21.90
2023-06-10T08:08:28.269Z,21.90
2023-06-10T08:13:31.508Z,22.10
2023-06-10T08:18:35.430Z,22.10
2023-06-10T08:23:38.763Z,22.20
2023-06-10T08:28:42.281Z,22.30
2023-06-10T08:33:45.864Z,22.40
2023-06-10T08:38:49.199Z,22.40
2023-06-10T08:44:29.164Z,22.50
2023-06-10T08:49:37.982Z,22.50
2023-06-10T08:54:45.035Z,22.50
2023-06-10T08:59:49.582Z,22.80
2023-06-10T09:04:53.445Z,22.90
2023-06-10T09:09:57.637Z,22.90
2023-06-10T09:15:03.581Z,23.00
2023-06-10T09:20:11.061Z,23.20
2023-06-10T09:25:15.214Z,23.26
2023-06-10T09:30:35.475Z,23.30
2023-06-10T09:35:47.049Z,23.60
2023-06-10T09:40:55.122Z,23.70
2023-06-10T09:45:58.702Z,23.60
2023-06-10T09:51:02.181Z,24.00
2023-06-10T09:56:08.783Z,24.04
2023-06-10T10:01:16.253Z,24.30
2023-06-10T10:06:22.112Z,24.22
2023-06-10T10:11:27.503Z,24.20
2023-06-10T10:16:40.375Z,24.40
2023-06-10T10:21:54.223Z,24.60
2023-06-10T10:27:00.528Z,24.70
2023-06-10T10:32:06.353Z,24.70
2023-06-10T10:37:09.819Z,24.80
2023-06-10T10:42:15.136Z,24.80
2023-06-10T10:47:22.547Z,25.00
2023-06-10T10:52:26.964Z,25.00
2023-06-10T10:57:31.423Z,25.20
2023-06-10T11:02:47.921Z,25.10
2023-06-10T11:07:59.316Z,25.00
2023-06-10T11:13:10.821Z,25.14
2023-06-10T11:18:15.474Z,25.46
2023-06-10T11:23:32.871Z,25.50
2023-06-10T11:28:36.316Z,25.70
2023-06-10T11:33:41.125Z,25.80
2023-06-10T11:38:45.501Z,26.30
2023-06-10T11:43:48.906Z,26.60
2023-06-10T11:48:59.313Z,26.34
2023-06-10T11:54:03.296Z,26.32
2023-06-10T11:59:08.975Z,26.50
2023-06-10T12:04:17.745Z,26.50
2023-06-10T12:09:27.992Z,26.40
2023-06-10T12:15:00.025Z,26.76
2023-06-10T12:20:29.922Z,26.90
2023-06-10T12:25:33.154Z,26.90
2023-06-10T12:30:36.761Z,26.98
2023-06-10T12:35:52.691Z,27.30
2023-06-10T12:41:02.761Z,26.90
2023-06-10T12:46:15.328Z,27.10
2023-06-10T12:51:19.945Z,27.50
2023-06-10T12:56:23.604Z,27.40
2023-06-10T13:01:28.512Z,27.50
2023-06-10T13:06:33.709Z,27.90
2023-06-10T13:11:38.077Z,28.00
2023-06-10T13:16:41.853Z,27.80
2023-06-10T13:21:45.371Z,27.60
2023-06-10T13:26:49.156Z,27.72
2023-06-10T13:31:52.897Z,27.90
2023-06-10T13:36:56.273Z,28.20
2023-06-10T13:42:00.182Z,28.10
2023-06-10T13:47:04.672Z,28.00
2023-06-10T13:52:22.702Z,28.40
2023-06-10T13:57:26.047Z,28.50
2023-06-10T14:02:29.558Z,28.50
2023-06-10T14:07:33.164Z,28.40
2023-06-10T14:12:36.943Z,28.42
2023-06-10T14:17:40.944Z,28.70
2023-06-10T14:22:44.385Z,28.80
2023-06-10T14:27:48.510Z,28.66
2023-06-10T14:32:51.749Z,28.50
2023-06-10T14:37:55.122Z,28.40
2023-06-10T14:42:58.434Z,28.40
2023-06-10T14:48:01.814Z,28.30
2023-06-10T14:53:05.262Z,28.30
2023-06-10T14:58:08.505Z,28.50
2023-06-10T15:03:11.958Z,28.50
2023-06-10T15:08:16.134Z,28.30
2023-06-10T15:13:19.538Z,27.90
2023-06-10T15:18:22.776Z,28.02
2023-06-10T15:23:26.164Z,28.08
2023-06-10T15:28:29.470Z,28.10
2023-06-10T15:33:32.804Z,28.20
2023-06-10T15:38:36.209Z,28.90
2023-06-10T15:43:39.631Z,28.80
2023-06-10T15:48:42.722Z,28.50
2023-06-10T15:53:47.268Z,28.70
2023-06-10T15:58:50.486Z,28.94
2023-06-10T16:03:54.053Z,28.60
2023-06-10T16:08:58.453Z,28.40
2023-06-10T16:14:01.742Z,28.20
2023-06-10T16:19:05.058Z,28.30
2023-06-10T16:24:09.797Z,28.20
2023-06-10T16:29:14.129Z,27.90
2023-06-10T16:34:18.208Z,27.70
2023-06-10T16:39:21.674Z,27.50
2023-06-10T16:44:25.004Z,27.40
2023-06-10T16:49:28.282Z,27.50
2023-06-10T16:54:31.805Z,27.60
2023-06-10T16:59:35.356Z,27.42
2023-06-10T17:04:38.730Z,26.90
2023-06-10T17:09:42.056Z,26.80
2023-06-10T17:14:46.078Z,26.70
2023-06-10T17:19:51.185Z,26.50
2023-06-10T17:24:54.956Z,26.40
2023-06-10T17:29:58.259Z,26.30
2023-06-10T17:35:01.584Z,26.00
2023-06-10T17:40:06.120Z,25.90
2023-06-10T17:45:10.419Z,25.90
2023-06-10T17:50:15.740Z,25.60
2023-06-10T17:55:20.659Z,25.30
2023-06-10T18:00:25.090Z,24.88
2023-06-10T18:05:28.802Z,24.40
2023-06-10T18:10:32.142Z,23.90
2023-06-10T18:15:37.743Z,23.56
2023-06-10T18:20:41.399Z,23.20
2023-06-10T18:25:44.813Z,22.80
2023-06-10T18:30:48.231Z,22.50
2023-06-10T18:35:51.871Z,22.20
2023-06-10T18:40:55.160Z,21.98
2023-06-10T18:45:59.682Z,21.80
2023-06-10T18:51:03.024Z,21.60
2023-06-10T18:56:06.442Z,21.50
2023-06-10T19:01:10.299Z,21.30
2023-06-10T19:06:13.784Z,21.20
2023-06-10T19:11:17.813Z,21.00
2023-06-10T19:16:21.565Z,20.90
2023-06-10T19:21:25.133Z,20.70
2023-06-10T19:26:28.487Z,20.50
2023-06-10T19:31:31.994Z,20.28
2023-06-10T19:36:35.798Z,20.10
2023-06-10T19:41:40.065Z,20.00
2023-06-10T19:46:43.568Z,19.80
2023-06-10T19:51:49.309Z,19.60
2023-06-10T19:56:52.641Z,19.50
2023-06-10T20:01:56.450Z,19.30
2023-06-10T20:07:02.010Z,19.20
2023-06-10T20:12:06.749Z,19.10
2023-06-10T20:17:10.055Z,18.90
2023-06-10T20:22:13.293Z,18.80
2023-06-10T20:27:17.128Z,18.70
2023-06-10T20:32:21.657Z,18.60
2023-06-10T20:37:26.063Z,18.50
2023-06-10T20:42:29.553Z,18.40
2023-06-10T20:47:34.203Z,18.30
2023-06-10T20:52:37.980Z,18.18
2023-06-10T20:57:41.885Z,18.00
2023-06-10T21:02:45.096Z,17.90
2023-06-10T21:07:48.921Z,17.80
2023-06-10T21:12:52.211Z,17.60
2023-06-10T21:17:55.703Z,17.50
2023-06-10T21:22:59.282Z,17.40
2023-06-10T21:28:03.063Z,17.30
2023-06-10T21:33:06.676Z,17.18
2023-06-10T21:38:10.116Z,17.10
2023-06-10T21:43:13.433Z,17.00
2023-06-10T21:48:16.980Z,16.90
2023-06-10T21:53:20.253Z,16.80
2023-06-10T21:58:23.779Z,16.70
2023-06-10T22:03:27.932Z,16.60
2023-06-10T22:08:31.650Z,16.50
2023-06-10T22:13:34.935Z,16.40
2023-06-10T22:18:38.024Z,16.24
2023-06-10T22:23:41.376Z,16.18
2023-06-10T22:28:44.746Z,16.10
2023-06-10T22:33:48.083Z,16.00
2023-06-10T22:38:51.504Z,15.90
2023-06-10T22:43:55.609Z,15.80
2023-06-10T22:48:59.107Z,15.70
2023-06-10T22:54:02.785Z,15.60
2023-06-10T22:59:06.285Z,15.50
2023-06-10T23:04:09.650Z,15.40
2023-06-10T23:09:14.555Z,15.40
2023-06-10T23:14:17.828Z,15.24
2023-06-10T23:19:22.919Z,15.20
2023-06-10T23:24:30.591Z,15.10
2023-06-10T23:29:37.240Z,14.96
2023-06-10T23:34:45.415Z,14.80
2023-06-10T23:39:49.638Z,14.80
2023-06-10T23:44:53.801Z,14.70
2023-06-10T23:49:56.983Z,14.60
2023-06-10T23:55:00.420Z,14.50
